Lena — V2FR — position and weather

sailwx.info

Track history (hours):
 
Tides and Currents Weather Stations Pressure Air Temp Water Temp Dewpoint Dewpoint Depression Visibility Wind Speed Wind Dir Waves Ship Positions

Lena

Last reported at 2016-Feb-06 07:20 UTC. Time now 2016-Feb-13 23:38 UTC.
Position N 29°33' W 093°46'.

Length 152 m; draft 7.4 m.

Type: Cargo ship. MMSI: 304080808.

Date/timePositionNaut miles runAvg speedWind from/ knotsBaromVisibWave heightAir tempDewpointWater temp
2016-Feb-06 07:20N 29°33' W 093°46'1013.3
2016-Feb-06 06:33N 29°42' W 093°51'1010.1
2016-Feb-06 05:32N 29°52' W 093°56'8 8.1
2016-Feb-06 04:33N 29°59' W 093°53'12 0.9
2016-Feb-05 15:16N 30°05' W 094°05'0 0.0
2016-Feb-05 14:30N 30°05' W 094°05'0 0.0
2016-Feb-05 10:16N 30°05' W 094°05'0 0.0
2016-Feb-05 09:13N 30°05' W 094°05'0 0.0
2016-Feb-04 09:21N 30°05' W 094°05'0 0.0
2016-Feb-04 06:23N 30°05' W 094°05'7 3.4
2016-Feb-04 04:23N 30°01' W 093°59'6 6.1
2016-Feb-04 03:28N 29°59' W 093°53'6 6.2
2016-Feb-04 02:33N 29°53' W 093°55'9 7.6
2016-Feb-04 01:22N 29°45' W 093°53'  
Track history (hours):
 
Tides and Currents Weather Stations Pressure Air Temp Water Temp Dewpoint Dewpoint Depression Visibility Wind Speed Wind Dir Waves Ship Positions

Lena

Last reported at 2016-Feb-06 07:20 UTC. Time now 2016-Feb-13 23:38 UTC.
Position N 29°33' W 093°46'.

Length 152 m; draft 7.4 m.

Type: Cargo ship. MMSI: 304080808.

Date/timePositionNaut miles runAvg speedWind from/ knotsBaromVisibWave heightAir tempDewpointWater temp
2016-Feb-06 07:20N 29°33' W 093°46'1013.3
2016-Feb-06 06:33N 29°42' W 093°51'1010.1
2016-Feb-06 05:32N 29°52' W 093°56'8 8.1
2016-Feb-06 04:33N 29°59' W 093°53'12 0.9
2016-Feb-05 15:16N 30°05' W 094°05'0 0.0
2016-Feb-05 14:30N 30°05' W 094°05'0 0.0
2016-Feb-05 10:16N 30°05' W 094°05'0 0.0
2016-Feb-05 09:13N 30°05' W 094°05'0 0.0
2016-Feb-04 09:21N 30°05' W 094°05'0 0.0
2016-Feb-04 06:23N 30°05' W 094°05'7 3.4
2016-Feb-04 04:23N 30°01' W 093°59'6 6.1
2016-Feb-04 03:28N 29°59' W 093°53'6 6.2
2016-Feb-04 02:33N 29°53' W 093°55'9 7.6
2016-Feb-04 01:22N 29°45' W 093°53'  

Dump ship's entire track history